Time;durP1;ratioP1;P1;durP2;ratioP2;P2;SDS_P1;SDS_P2;PMS_P1;PMS_P2;Temp;Humidity;BMP_temperature;BMP_pressure;BME280_temperature;BME280_humidity;BME280_pressure;Samples;Min_cycle;Max_cycle;Signal;HPM_P1;HPM_P2
2021/12/02 00:00:51;;;;;;;1.73;1.45;;;;;;;-9.07;85.84;98852.59;5079363;28;20119;-80
2021/12/02 00:03:17;;;;;;;1.30;1.20;;;;;;;-8.97;85.96;98854.91;5069676;28;20816;-80
2021/12/02 00:05:43;;;;;;;2.88;1.40;;;;;;;-8.75;85.91;98856.38;5056563;28;20270;-81
2021/12/02 00:08:08;;;;;;;2.25;1.33;;;;;;;-8.61;85.72;98855.41;5053964;28;20045;-80
2021/12/02 00:10:34;;;;;;;1.65;1.20;;;;;;;-8.51;85.59;98865.63;5048427;28;20089;-80
2021/12/02 00:13:01;;;;;;;3.17;1.45;;;;;;;-8.55;85.88;98859.91;5071431;28;20506;-81
2021/12/02 00:15:35;;;;;;;2.53;1.50;;;;;;;-8.47;85.82;98853.59;5051292;28;20063;-81
2021/12/02 00:23:34;;;;;;;2.97;1.50;;;;;;;-8.44;86.00;98858.50;5079098;28;20388;-81
2021/12/02 00:26:08;;;;;;;3.33;1.48;;;;;;;-8.34;86.04;98872.22;5043633;28;20041;-82
2021/12/02 00:28:36;;;;;;;3.92;1.63;;;;;;;-8.39;86.03;98864.03;5045395;28;20056;-82
2021/12/02 00:31:02;;;;;;;4.47;1.77;;;;;;;-8.44;86.40;98865.66;5048194;28;20191;-82
2021/12/02 00:33:30;;;;;;;3.72;1.40;;;;;;;-8.52;85.50;98861.34;5047980;28;20128;-83
2021/12/02 00:35:56;;;;;;;2.63;1.30;;;;;;;-8.62;85.47;98863.59;5037410;28;20041;-82
2021/12/02 00:38:24;;;;;;;1.58;1.48;;;;;;;-8.67;85.46;98874.84;5042125;28;20041;-81
2021/12/02 00:40:50;;;;;;;2.83;1.63;;;;;;;-8.76;85.18;98865.38;5056569;28;20032;-82
2021/12/02 00:43:16;;;;;;;2.85;1.70;;;;;;;-8.72;85.10;98855.97;5049352;28;20037;-81
2021/12/02 00:45:43;;;;;;;4.13;1.77;;;;;;;-8.68;85.43;98873.16;5070798;28;20063;-82
2021/12/02 00:48:10;;;;;;;4.63;2.17;;;;;;;-8.64;85.39;98868.28;5070760;28;20186;-81
2021/12/02 00:50:45;;;;;;;3.72;1.90;;;;;;;-8.67;84.95;98876.69;5059949;28;20028;-82
2021/12/02 00:53:11;;;;;;;4.43;1.90;;;;;;;-8.69;84.67;98879.50;5071283;28;20033;-81
2021/12/02 00:55:39;;;;;;;2.42;1.92;;;;;;;-8.68;84.93;98865.19;5051681;28;20101;-81
2021/12/02 00:58:05;;;;;;;4.05;2.38;;;;;;;-8.57;84.96;98871.78;5062606;28;20087;-80
2021/12/02 01:00:31;;;;;;;3.30;2.30;;;;;;;-8.46;85.12;98863.22;5040589;28;20029;-79
2021/12/02 01:03:01;;;;;;;3.80;2.47;;;;;;;-8.41;85.48;98870.56;5067999;28;20541;-79
2021/12/02 01:05:30;;;;;;;5.57;2.47;;;;;;;-8.23;85.53;98876.91;5049286;28;20033;-79
2021/12/02 01:08:00;;;;;;;5.32;2.47;;;;;;;-8.26;85.30;98877.31;5048593;28;20044;-79
2021/12/02 01:10:26;;;;;;;3.78;2.33;;;;;;;-8.26;85.36;98879.16;5054259;28;20040;-79
2021/12/02 01:12:51;;;;;;;3.97;2.45;;;;;;;-8.24;85.45;98883.25;5060351;28;20044;-79
2021/12/02 01:15:17;;;;;;;4.28;2.20;;;;;;;-8.32;84.97;98883.47;5073357;28;20028;-79
2021/12/02 01:17:43;;;;;;;6.00;2.63;;;;;;;-8.38;85.63;98896.75;5071592;28;20044;-80
2021/12/02 01:20:09;;;;;;;4.03;2.33;;;;;;;-8.32;85.86;98896.75;5058686;28;20036;-79
2021/12/02 01:22:38;;;;;;;3.47;2.30;;;;;;;-8.19;85.70;98895.94;5066233;28;20584;-80
2021/12/02 01:25:07;;;;;;;1.98;1.52;;;;;;;-8.17;85.56;98896.53;5055023;28;20535;-79
2021/12/02 01:27:35;;;;;;;2.50;1.73;;;;;;;-8.11;86.44;98895.75;5056539;28;20043;-80
2021/12/02 01:30:02;;;;;;;5.05;2.30;;;;;;;-8.01;86.12;98903.31;5061286;28;20033;-79
2021/12/02 01:32:32;;;;;;;3.08;1.60;;;;;;;-7.93;86.22;98900.47;5049740;28;20132;-79
2021/12/02 01:34:58;;;;;;;2.75;2.10;;;;;;;-7.89;85.97;98891.03;5083245;28;20460;-79
2021/12/02 01:37:25;;;;;;;4.00;2.10;;;;;;;-7.90;86.26;98892.06;5059934;28;20474;-80
2021/12/02 01:39:50;;;;;;;2.15;1.48;;;;;;;-7.84;86.08;98896.56;5062649;28;20029;-79
2021/12/02 01:42:24;;;;;;;2.35;1.60;;;;;;;-7.82;86.14;98897.16;5056648;28;20064;-79
2021/12/02 01:44:51;;;;;;;3.05;1.70;;;;;;;-7.92;85.90;98894.13;5048937;28;20041;-79
2021/12/02 01:47:21;;;;;;;2.80;1.60;;;;;;;-7.79;85.75;98888.78;5031315;28;20052;-79
2021/12/02 01:49:51;;;;;;;3.30;1.75;;;;;;;-7.69;85.64;98901.69;5064495;28;20044;-79
2021/12/02 01:52:20;;;;;;;2.80;1.67;;;;;;;-7.68;85.95;98890.81;5049751;28;20503;-80
2021/12/02 01:54:46;;;;;;;3.22;1.73;;;;;;;-7.61;85.95;98883.66;5051414;28;20041;-80
2021/12/02 01:57:33;;;;;;;1.83;1.50;;;;;;;-7.51;85.97;98891.19;5055032;28;20517;-80
2021/12/02 02:00:10;;;;;;;3.67;1.80;;;;;;;-7.40;86.13;98887.09;5068272;28;20384;-79
2021/12/02 02:02:39;;;;;;;2.25;1.70;;;;;;;-7.31;85.78;98881.31;5037092;28;20036;-79
2021/12/02 02:05:11;;;;;;;1.80;1.52;;;;;;;-7.20;85.89;98873.72;5070159;28;20040;-79
2021/12/02 02:07:53;;;;;;;2.75;1.27;;;;;;;-7.13;85.52;98869.97;5065973;28;20125;-80
2021/12/02 02:10:19;;;;;;;1.42;1.33;;;;;;;-7.16;85.50;98883.72;5054880;28;20418;-79
2021/12/02 02:12:45;;;;;;;2.08;1.80;;;;;;;-7.16;85.32;98875.75;5052543;28;20143;-79
2021/12/02 02:15:11;;;;;;;1.58;1.20;;;;;;;-7.18;85.55;98871.66;5066062;28;20135;-80
2021/12/02 02:17:47;;;;;;;3.90;1.60;;;;;;;-7.13;85.78;98869.16;5049917;28;20540;-78
2021/12/02 02:20:14;;;;;;;1.33;1.23;;;;;;;-6.98;85.68;98867.06;5042194;28;20498;-79
2021/12/02 02:22:40;;;;;;;1.70;1.38;;;;;;;-6.94;85.80;98865.63;5070338;28;20037;-80
2021/12/02 02:25:13;;;;;;;2.33;1.52;;;;;;;-6.84;85.71;98873.16;5052451;28;20120;-80
2021/12/02 02:27:39;;;;;;;1.95;1.58;;;;;;;-6.83;85.31;98861.47;5050942;28;20402;-79
2021/12/02 02:30:08;;;;;;;2.33;1.52;;;;;;;-6.83;85.17;98864.94;5055989;28;20044;-79
2021/12/02 02:32:34;;;;;;;2.08;1.60;;;;;;;-6.82;84.82;98860.44;5052363;28;20033;-79
2021/12/02 02:34:59;;;;;;;2.30;1.77;;;;;;;-6.83;85.08;98859.59;5037868;28;20035;-79
2021/12/02 02:37:29;;;;;;;3.33;1.98;;;;;;;-6.81;85.40;98848.72;5059454;28;20052;-79
2021/12/02 02:39:55;;;;;;;1.90;1.50;;;;;;;-6.80;85.53;98853.84;5035372;28;20047;-79
2021/12/02 02:42:24;;;;;;;1.85;1.50;;;;;;;-6.73;85.63;98859.97;5082368;28;20045;-79
2021/12/02 02:44:51;;;;;;;1.27;1.17;;;;;;;-6.75;85.49;98858.56;5038622;28;20504;-80
2021/12/02 02:47:16;;;;;;;1.42;1.33;;;;;;;-6.77;85.44;98868.59;5083827;28;20050;-80
2021/12/02 02:49:42;;;;;;;2.65;1.60;;;;;;;-6.70;85.23;98877.41;5076430;28;20034;-80
2021/12/02 02:52:07;;;;;;;3.22;1.20;;;;;;;-6.66;84.68;98873.28;5047643;28;20438;-81
2021/12/02 02:54:33;;;;;;;3.25;1.58;;;;;;;-6.74;84.72;98885.00;5082626;28;20068;-81
2021/12/02 02:57:08;;;;;;;1.65;1.38;;;;;;;-6.70;84.71;98890.75;5055913;28;20043;-81
2021/12/02 02:59:43;;;;;;;1.42;1.33;;;;;;;-6.73;84.64;98896.50;5051372;28;20075;-81
2021/12/02 03:02:23;;;;;;;3.17;1.70;;;;;;;-6.68;84.71;98894.00;5043642;28;20455;-81
2021/12/02 03:04:58;;;;;;;1.98;1.27;;;;;;;-6.73;84.90;98886.66;5085117;28;20074;-81
2021/12/02 03:07:43;;;;;;;5.10;2.00;;;;;;;-6.70;85.05;98896.06;5056631;28;20044;-81
2021/12/02 03:10:21;;;;;;;2.70;1.40;;;;;;;-6.69;85.23;98895.03;5040415;28;20040;-81
2021/12/02 03:17:42;;;;;;;3.58;1.30;;;;;;;-6.73;85.94;98897.31;5070031;28;20047;-81
2021/12/02 03:20:08;;;;;;;2.70;1.73;;;;;;;-6.70;86.00;98893.41;5052790;28;20119;-81
2021/12/02 03:22:34;;;;;;;1.95;1.30;;;;;;;-6.68;85.73;98904.69;5076987;28;20041;-81
2021/12/02 03:25:00;;;;;;;2.70;1.70;;;;;;;-6.62;85.61;98911.00;5053977;28;20499;-81
2021/12/02 03:27:26;;;;;;;1.58;1.48;;;;;;;-6.61;85.26;98913.44;5053426;28;20041;-82
2021/12/02 03:29:52;;;;;;;1.48;1.35;;;;;;;-6.59;85.20;98913.28;5061653;28;20036;-80
2021/12/02 03:32:18;;;;;;;1.52;1.10;;;;;;;-6.67;85.78;98911.66;5055409;28;20128;-80
2021/12/02 03:34:44;;;;;;;1.38;1.20;;;;;;;-6.68;86.13;98915.34;5066059;28;20391;-80
2021/12/02 03:37:11;;;;;;;1.58;1.20;;;;;;;-6.52;85.78;98914.03;5054376;28;20131;-80
2021/12/02 03:39:36;;;;;;;1.80;1.15;;;;;;;-6.47;85.71;98916.88;5053261;28;20049;-81
2021/12/02 03:42:04;;;;;;;2.63;1.10;;;;;;;-6.55;86.08;98919.81;5054613;28;20029;-80
2021/12/02 03:44:30;;;;;;;1.52;1.42;;;;;;;-6.54;86.23;98918.78;5053550;28;20043;-81
2021/12/02 03:46:56;;;;;;;3.83;1.67;;;;;;;-6.56;86.34;98911.00;5049125;28;20419;-80
2021/12/02 03:49:21;;;;;;;1.33;1.23;;;;;;;-6.60;86.37;98915.09;5050593;28;20041;-80
2021/12/02 03:51:47;;;;;;;1.23;1.08;;;;;;;-6.59;85.96;98916.75;5062028;28;20044;-79
2021/12/02 03:54:13;;;;;;;1.20;0.77;;;;;;;-6.51;85.30;98918.34;5053209;28;20047;-79
2021/12/02 03:57:05;;;;;;;0.90;0.90;;;;;;;-6.50;85.16;98933.31;5050978;28;20045;-78
2021/12/02 03:59:32;;;;;;;1.75;0.90;;;;;;;-6.54;85.76;98922.25;5053287;28;20116;-79
2021/12/02 04:01:57;;;;;;;0.80;0.80;;;;;;;-6.63;86.05;98925.38;5053139;28;20091;-79
2021/12/02 04:04:23;;;;;;;0.93;0.75;;;;;;;-6.52;85.84;98917.53;5051605;28;20037;-79
2021/12/02 04:06:49;;;;;;;1.10;0.77;;;;;;;-6.53;85.86;98909.75;5052905;28;20522;-79
2021/12/02 04:09:21;;;;;;;0.95;0.95;;;;;;;-6.49;85.46;98902.94;5050530;28;20051;-79
2021/12/02 04:12:04;;;;;;;1.40;0.70;;;;;;;-6.50;85.33;98896.78;5047980;28;20040;-79
2021/12/02 04:14:55;;;;;;;0.85;0.85;;;;;;;-6.43;85.50;98902.88;5065724;28;20037;-77
2021/12/02 04:17:28;;;;;;;0.98;0.95;;;;;;;-6.39;85.40;98904.13;5064737;28;20041;-77
2021/12/02 04:19:54;;;;;;;1.38;1.02;;;;;;;-6.34;85.26;98905.31;5052605;28;20044;-77
2021/12/02 04:22:19;;;;;;;0.70;0.70;;;;;;;-6.33;85.07;98898.94;5052286;28;20041;-77
2021/12/02 04:24:45;;;;;;;0.70;0.70;;;;;;;-6.30;84.89;98902.00;5051303;28;20041;-78
2021/12/02 04:27:11;;;;;;;1.00;0.88;;;;;;;-6.37;84.73;98898.56;5052103;28;20122;-78
2021/12/02 04:29:36;;;;;;;1.65;1.02;;;;;;;-6.42;84.62;98899.22;5052423;28;20032;-80
2021/12/02 04:32:04;;;;;;;1.30;1.13;;;;;;;-6.43;84.77;98894.88;5048466;28;20513;-78
2021/12/02 04:34:29;;;;;;;1.23;1.00;;;;;;;-6.34;84.74;98898.13;5045562;28;20427;-84
2021/12/02 04:36:55;;;;;;;0.88;0.82;;;;;;;-6.27;84.35;98888.22;5045677;28;20041;-71
2021/12/02 04:39:20;;;;;;;1.15;1.05;;;;;;;-6.31;84.44;98900.38;5047699;28;20033;-71
2021/12/02 04:41:46;;;;;;;0.85;0.85;;;;;;;-6.29;84.50;98906.31;5050226;28;20028;-71
2021/12/02 04:44:14;;;;;;;0.90;0.80;;;;;;;-6.22;84.45;98903.59;5049686;28;20124;-70
2021/12/02 04:46:39;;;;;;;0.82;0.75;;;;;;;-6.21;84.64;98907.91;5032252;28;20033;-72
2021/12/02 04:49:05;;;;;;;0.98;0.90;;;;;;;-6.22;84.45;98915.09;5049387;28;20040;-72
2021/12/02 04:51:31;;;;;;;0.85;0.80;;;;;;;-6.23;84.37;98909.97;5049837;28;20038;-70
2021/12/02 04:53:57;;;;;;;0.70;0.70;;;;;;;-6.20;84.24;98910.38;5065422;28;20043;-70
2021/12/02 04:56:23;;;;;;;0.73;0.73;;;;;;;-6.18;84.08;98905.63;5066906;28;20037;-70
2021/12/02 04:58:48;;;;;;;1.70;1.05;;;;;;;-6.28;83.41;98904.44;5051018;28;20156;-73
2021/12/02 05:01:14;;;;;;;0.75;0.70;;;;;;;-6.31;83.64;98915.56;5084927;28;20043;-73
2021/12/02 05:03:39;;;;;;;1.52;1.25;;;;;;;-6.29;83.82;98908.97;5050160;28;20029;-73
2021/12/02 05:06:05;;;;;;;0.65;0.65;;;;;;;-6.32;83.84;98908.59;5050284;28;20045;-72
2021/12/02 05:08:31;;;;;;;0.93;0.93;;;;;;;-6.32;83.93;98905.91;5049863;28;20094;-73
2021/12/02 05:10:56;;;;;;;1.08;0.95;;;;;;;-6.29;83.97;98906.31;5050513;28;20063;-73
2021/12/02 05:13:22;;;;;;;1.50;1.40;;;;;;;-6.28;83.91;98910.59;5051216;28;20052;-73
2021/12/02 05:15:48;;;;;;;1.50;1.40;;;;;;;-6.37;83.68;98909.25;5050435;28;20072;-73
2021/12/02 05:18:13;;;;;;;1.85;1.17;;;;;;;-6.49;83.16;98901.09;5051238;28;20056;-73
2021/12/02 05:20:39;;;;;;;3.92;1.38;;;;;;;-6.57;82.79;98901.34;5049653;28;20064;-72
2021/12/02 05:23:04;;;;;;;1.63;1.48;;;;;;;-6.77;81.76;98895.28;5050833;28;20037;-72
2021/12/02 05:25:30;;;;;;;2.95;1.75;;;;;;;-6.94;81.82;98904.78;5061920;28;20040;-72
2021/12/02 05:27:56;;;;;;;4.43;1.95;;;;;;;-7.01;82.26;98902.97;5049908;28;20040;-72
2021/12/02 05:30:21;;;;;;;2.78;1.88;;;;;;;-7.03;81.89;98905.03;5079786;28;20136;-72
2021/12/02 05:32:47;;;;;;;2.05;1.95;;;;;;;-7.12;82.21;98908.13;5050115;28;20037;-72
2021/12/02 05:35:12;;;;;;;1.48;1.40;;;;;;;-7.28;81.91;98912.09;5049724;28;20048;-72
2021/12/02 05:37:38;;;;;;;2.65;1.77;;;;;;;-7.60;80.95;98917.25;5051531;28;20044;-72
2021/12/02 05:40:04;;;;;;;10.13;4.00;;;;;;;-7.66;81.83;98928.69;5050712;28;20044;-72
2021/12/02 05:42:30;;;;;;;6.82;3.20;;;;;;;-7.69;82.38;98925.63;5051170;28;20131;-72
2021/12/02 05:44:55;;;;;;;2.30;2.10;;;;;;;-7.73;82.30;98924.41;5050876;28;20124;-72
2021/12/02 05:47:21;;;;;;;3.40;2.38;;;;;;;-7.81;82.83;98922.78;5066162;28;20051;-72
2021/12/02 05:49:47;;;;;;;4.82;3.05;;;;;;;-7.72;83.15;98924.22;5047831;28;20041;-72
2021/12/02 05:52:12;;;;;;;2.40;2.00;;;;;;;-7.70;83.41;98927.47;5050566;28;20045;-72
2021/12/02 05:54:38;;;;;;;3.42;2.40;;;;;;;-7.64;83.62;98921.31;5049490;28;20086;-72
2021/12/02 05:57:04;;;;;;;5.88;3.65;;;;;;;-7.69;83.85;98921.13;5050594;28;20495;-71
2021/12/02 05:59:29;;;;;;;5.25;3.70;;;;;;;-7.72;83.84;98926.88;5037102;28;20037;-72
2021/12/02 06:01:55;;;;;;;8.07;4.35;;;;;;;-7.74;84.13;98909.47;5066066;28;20116;-72
2021/12/02 06:04:21;;;;;;;4.93;3.58;;;;;;;-7.84;84.14;98930.34;5048968;28;20037;-72
2021/12/02 06:06:46;;;;;;;9.32;4.20;;;;;;;-8.06;84.52;98916.41;5050585;28;20064;-73
2021/12/02 06:09:12;;;;;;;7.07;3.83;;;;;;;-8.26;84.42;98919.06;5049704;28;20033;-72
2021/12/02 06:11:37;;;;;;;6.45;3.13;;;;;;;-8.31;84.65;98925.00;5050089;28;20044;-73
2021/12/02 06:14:04;;;;;;;5.38;3.45;;;;;;;-8.32;84.54;98923.34;5050674;28;20028;-73
2021/12/02 06:16:30;;;;;;;6.65;3.15;;;;;;;-8.36;84.54;98930.13;5050455;28;20079;-73
2021/12/02 06:18:55;;;;;;;5.40;3.05;;;;;;;-8.31;84.71;98934.81;5049650;28;20049;-72
2021/12/02 06:21:21;;;;;;;6.75;2.70;;;;;;;-8.22;84.63;98929.09;5050439;28;20089;-72
2021/12/02 06:23:47;;;;;;;5.30;3.08;;;;;;;-8.22;84.62;98934.41;5050400;28;20078;-72
2021/12/02 06:26:12;;;;;;;4.95;2.95;;;;;;;-8.30;84.59;98931.13;5049906;28;20151;-73
2021/12/02 06:28:38;;;;;;;3.20;2.90;;;;;;;-8.30;84.94;98936.47;5050554;28;20392;-73
2021/12/02 06:31:06;;;;;;;8.13;3.50;;;;;;;-8.22;85.06;98941.56;5051925;28;20119;-72
2021/12/02 06:33:32;;;;;;;3.78;3.38;;;;;;;-8.21;84.71;98944.03;5056854;28;20033;-72
2021/12/02 06:35:58;;;;;;;7.82;3.28;;;;;;;-8.40;84.66;98941.38;5057445;28;20044;-72
2021/12/02 06:38:23;;;;;;;3.95;3.35;;;;;;;-8.56;84.82;98947.84;5056709;28;20032;-72
2021/12/02 06:40:50;;;;;;;4.72;3.22;;;;;;;-8.65;85.19;98943.75;5057327;28;20093;-72
2021/12/02 06:43:16;;;;;;;3.10;2.58;;;;;;;-8.74;85.29;98950.25;5055292;28;20468;-72
2021/12/02 06:45:43;;;;;;;4.72;2.70;;;;;;;-8.79;85.58;98953.50;5057048;28;20582;-72
2021/12/02 06:48:09;;;;;;;7.95;3.20;;;;;;;-8.83;85.81;98946.97;5055590;28;20162;-72
2021/12/02 06:50:36;;;;;;;3.78;3.17;;;;;;;-8.87;85.77;98951.00;5055921;28;20041;-72
2021/12/02 06:53:03;;;;;;;4.70;2.45;;;;;;;-8.90;86.02;98946.91;5056909;28;20178;-72
2021/12/02 06:55:29;;;;;;;4.82;2.70;;;;;;;-8.90;85.92;98952.22;5056629;28;20059;-72
2021/12/02 06:57:54;;;;;;;7.28;2.63;;;;;;;-8.92;85.91;98948.13;5056965;28;20399;-72
2021/12/02 07:00:21;;;;;;;4.60;2.72;;;;;;;-8.92;86.13;98953.44;5055543;28;20127;-72
2021/12/02 07:02:48;;;;;;;4.03;2.35;;;;;;;-8.94;86.09;98961.63;5057040;28;20045;-72
2021/12/02 07:05:15;;;;;;;2.83;2.15;;;;;;;-8.95;86.57;98962.63;5055312;28;20507;-72
2021/12/02 07:07:40;;;;;;;3.25;2.30;;;;;;;-8.94;86.34;98971.44;5038894;28;20044;-72
2021/12/02 07:10:17;;;;;;;3.75;2.30;;;;;;;-8.94;86.58;98972.25;5053511;28;20041;-72
2021/12/02 07:12:45;;;;;;;3.10;1.83;;;;;;;-8.92;86.35;98972.03;5055242;28;20049;-72
2021/12/02 07:15:19;;;;;;;3.25;2.97;;;;;;;-8.93;86.33;98957.13;5071487;28;20722;-72
2021/12/02 07:17:49;;;;;;;7.88;2.50;;;;;;;-8.92;86.24;98970.22;5056590;28;20052;-72
2021/12/02 07:20:17;;;;;;;3.75;2.42;;;;;;;-8.90;86.31;98980.63;5055655;28;20083;-71
2021/12/02 07:22:42;;;;;;;6.00;4.13;;;;;;;-8.88;86.44;98979.41;5056858;28;20094;-71
2021/12/02 07:25:09;;;;;;;5.20;3.78;;;;;;;-8.85;86.52;98980.84;5055278;28;20461;-71
2021/12/02 07:27:34;;;;;;;4.15;2.13;;;;;;;-8.85;86.51;98987.03;5056853;28;20480;-71
2021/12/02 07:30:00;;;;;;;6.75;4.38;;;;;;;-8.85;86.26;98980.84;5055610;28;20033;-71
2021/12/02 07:32:33;;;;;;;6.20;3.45;;;;;;;-8.87;86.19;98975.75;5055322;28;20106;-72
2021/12/02 07:35:00;;;;;;;8.88;4.90;;;;;;;-8.85;86.38;98981.72;5056507;28;20190;-71
2021/12/02 07:37:26;;;;;;;8.85;5.72;;;;;;;-8.85;86.46;98981.72;5038652;28;20055;-71
2021/12/02 07:39:52;;;;;;;9.40;4.85;;;;;;;-8.86;86.13;98976.56;5055410;28;20040;-71
2021/12/02 07:42:18;;;;;;;9.57;5.68;;;;;;;-8.88;86.40;98975.94;5053973;28;20111;-71
2021/12/02 07:44:44;;;;;;;7.25;4.40;;;;;;;-8.89;86.47;98987.59;5052643;28;20091;-71
2021/12/02 07:47:10;;;;;;;9.10;5.35;;;;;;;-8.90;86.58;98981.47;5053018;28;20043;-71
2021/12/02 07:49:37;;;;;;;3.08;2.80;;;;;;;-8.94;86.31;98992.69;5052140;28;20041;-71
2021/12/02 07:52:03;;;;;;;9.13;4.20;;;;;;;-8.97;86.20;98991.25;5052832;28;20156;-71
2021/12/02 07:54:32;;;;;;;11.88;5.07;;;;;;;-8.94;86.04;98998.00;5051101;28;20465;-72
2021/12/02 07:56:58;;;;;;;9.85;4.93;;;;;;;-8.94;86.04;99004.13;5053165;28;20041;-71
2021/12/02 07:59:23;;;;;;;7.05;4.15;;;;;;;-8.98;85.98;98991.44;5052107;28;20048;-71
2021/12/02 08:01:49;;;;;;;10.40;4.55;;;;;;;-8.98;86.16;98991.44;5051634;28;20033;-72
2021/12/02 08:04:15;;;;;;;6.30;3.20;;;;;;;-9.00;86.16;98998.78;5050433;28;20744;-72
2021/12/02 08:06:40;;;;;;;3.72;2.50;;;;;;;-9.03;85.90;98989.34;5046441;28;20036;-71
2021/12/02 08:09:06;;;;;;;4.30;3.22;;;;;;;-9.03;85.88;98989.34;5052842;28;20045;-72
2021/12/02 08:11:33;;;;;;;3.70;3.03;;;;;;;-9.06;85.88;98983.63;5053125;28;20494;-72
2021/12/02 08:13:59;;;;;;;3.63;2.67;;;;;;;-9.06;85.84;98989.75;5052870;28;20068;-72
2021/12/02 08:16:25;;;;;;;9.45;3.13;;;;;;;-9.02;85.89;99001.66;5052712;28;20442;-72
2021/12/02 08:18:51;;;;;;;2.85;1.80;;;;;;;-8.84;85.70;98999.28;5052910;28;20041;-72
2021/12/02 08:21:17;;;;;;;4.38;2.55;;;;;;;-8.65;85.17;99005.72;5052470;28;20037;-71
2021/12/02 08:23:42;;;;;;;4.78;3.03;;;;;;;-8.73;84.77;99013.03;5051405;28;20044;-71
2021/12/02 08:26:08;;;;;;;4.50;3.10;;;;;;;-8.87;84.95;99020.09;5052289;28;20048;-71
2021/12/02 08:28:34;;;;;;;9.95;3.22;;;;;;;-8.93;84.99;99019.06;5052546;28;20574;-71
2021/12/02 08:30:59;;;;;;;5.18;3.53;;;;;;;-8.99;84.79;99011.88;5052360;28;20033;-71
2021/12/02 08:33:25;;;;;;;8.05;4.07;;;;;;;-9.05;84.78;99015.31;5052202;28;20041;-72
2021/12/02 08:35:51;;;;;;;4.45;3.50;;;;;;;-9.09;84.68;99016.72;5052473;28;20037;-72
2021/12/02 08:38:18;;;;;;;5.70;3.53;;;;;;;-9.11;85.19;99021.41;5031179;28;20645;-72
2021/12/02 08:40:47;;;;;;;5.25;3.53;;;;;;;-9.13;85.32;99024.25;5046462;28;20039;-71
2021/12/02 08:43:14;;;;;;;8.27;4.60;;;;;;;-9.18;85.27;99010.75;5052427;28;20040;-72
2021/12/02 08:45:42;;;;;;;6.70;4.30;;;;;;;-9.23;85.03;99001.69;5034571;28;20507;-71
2021/12/02 08:48:09;;;;;;;11.27;4.90;;;;;;;-9.28;85.33;99009.44;5050966;28;20041;-73
2021/12/02 08:50:37;;;;;;;7.70;4.35;;;;;;;-9.31;85.28;99015.97;5034762;28;20132;-73
2021/12/02 08:53:03;;;;;;;7.70;4.53;;;;;;;-9.33;85.33;99009.19;5051915;28;20549;-73
2021/12/02 08:55:30;;;;;;;2.72;2.47;;;;;;;-9.34;85.57;99008.38;5042555;28;20125;-71
2021/12/02 08:57:56;;;;;;;1.02;1.02;;;;;;;-9.35;85.34;99016.53;5052207;28;20091;-71
2021/12/02 09:00:27;;;;;;;5.00;2.90;;;;;;;-9.39;85.02;99007.28;5051841;28;20032;-71
2021/12/02 09:02:53;;;;;;;7.15;3.55;;;;;;;-9.42;85.20;99014.63;5051975;28;20032;-71
2021/12/02 09:05:19;;;;;;;6.00;3.35;;;;;;;-9.46;84.88;99024.00;5049976;28;20033;-71
2021/12/02 09:07:45;;;;;;;3.92;3.00;;;;;;;-9.47;84.91;99014.41;5065127;28;20040;-71
2021/12/02 09:10:12;;;;;;;8.18;2.90;;;;;;;-9.47;85.11;99001.13;5050467;28;20048;-72
2021/12/02 09:12:38;;;;;;;6.25;4.00;;;;;;;-9.51;84.60;99002.53;5048174;28;20471;-71
2021/12/02 09:15:07;;;;;;;7.55;3.97;;;;;;;-9.52;85.06;99006.22;5050581;28;20044;-72
2021/12/02 09:17:33;;;;;;;;;;;;;;;-9.52;85.30;99010.69;5052044;28;20419;-72
2021/12/02 09:19:59;;;;;;;6.30;3.70;;;;;;;-9.53;85.25;99001.09;5050423;28;19921;-72
2021/12/02 09:22:24;;;;;;;5.03;3.33;;;;;;;-9.52;85.35;99008.03;5066555;28;20041;-72
2021/12/02 09:24:50;;;;;;;6.68;4.25;;;;;;;-9.53;85.33;99003.75;5050227;28;20557;-72
2021/12/02 09:27:16;;;;;;;1.70;1.60;;;;;;;-9.52;85.36;99000.91;5051009;28;20045;-73
2021/12/02 09:29:41;;;;;;;10.05;4.00;;;;;;;-9.49;85.32;98997.03;5050110;28;20029;-73
2021/12/02 09:32:07;;;;;;;6.70;3.33;;;;;;;-9.49;85.37;98992.53;5051194;28;20171;-72
2021/12/02 09:34:33;;;;;;;5.10;3.42;;;;;;;-9.48;85.60;98994.19;5050278;28;20036;-72
2021/12/02 09:36:59;;;;;;;7.82;3.42;;;;;;;-9.47;85.48;98987.84;5050308;28;20033;-72
2021/12/02 09:39:32;;;;;;;6.35;3.05;;;;;;;-9.46;85.34;98992.16;5051090;28;20178;-72
2021/12/02 09:41:58;;;;;;;3.80;3.08;;;;;;;-9.47;85.63;98993.16;5050041;28;20036;-73
2021/12/02 09:44:24;;;;;;;6.53;2.67;;;;;;;-9.44;85.57;98986.66;5050814;28;20033;-73
2021/12/02 09:46:50;;;;;;;3.97;3.13;;;;;;;-9.43;85.58;98983.78;5033207;28;20049;-72
2021/12/02 09:49:16;;;;;;;6.43;3.33;;;;;;;-9.40;85.51;98987.06;5050957;28;20068;-73
2021/12/02 09:54:37;;;;;;;4.72;2.88;;;;;;;-9.35;85.81;98979.38;5049390;28;20071;-72
2021/12/02 09:57:01;;;;;;;1.85;1.27;;;;;;;-9.36;85.75;98978.53;5049996;28;20052;-72
2021/12/02 09:59:36;;;;;;;3.60;1.70;;;;;;;-9.34;85.40;98973.84;5049591;28;20037;-72
2021/12/02 10:02:07;;;;;;;0.93;0.77;;;;;;;-9.32;85.20;98965.69;5066268;28;20063;-72
2021/12/02 10:04:39;;;;;;;4.25;2.20;;;;;;;-9.34;85.18;98976.50;5050206;28;20783;-71
2021/12/02 10:07:18;;;;;;;3.05;2.15;;;;;;;-9.36;85.16;98975.06;5034061;28;20506;-71
2021/12/02 10:10:30;;;;;;;4.25;2.40;;;;;;;-9.38;85.29;98979.72;5050824;28;20044;-71
2021/12/02 10:13:35;;;;;;;3.15;2.20;;;;;;;-9.38;85.54;98974.41;5050660;28;20057;-71
2021/12/02 10:16:39;;;;;;;5.18;2.88;;;;;;;-9.37;85.75;98954.81;5040662;28;20545;-71
2021/12/02 10:19:04;;;;;;;4.05;2.45;;;;;;;-9.34;85.73;98957.91;5050050;28;20197;-71
2021/12/02 10:24:05;;;;;;;5.30;2.95;;;;;;;-9.30;86.02;98940.56;5049176;28;20059;-71
2021/12/02 10:26:35;;;;;;;7.43;3.85;;;;;;;-9.28;85.86;98941.19;5081505;28;20033;-71
2021/12/02 10:29:08;;;;;;;5.05;2.55;;;;;;;-9.23;85.79;98935.28;5065452;28;20515;-71
2021/12/02 10:31:34;;;;;;;3.30;2.50;;;;;;;-9.19;85.81;98945.34;5044142;28;20103;-72
2021/12/02 10:34:03;;;;;;;6.18;3.90;;;;;;;-9.16;85.99;98936.97;5049606;28;20491;-71
2021/12/02 10:36:43;;;;;;;6.15;3.83;;;;;;;-9.09;86.16;98937.00;5082553;28;20041;-72
2021/12/02 10:39:17;;;;;;;5.03;3.20;;;;;;;-9.03;86.18;98932.72;5043316;28;20110;-70
2021/12/02 10:41:45;;;;;;;1.52;1.27;;;;;;;-9.00;86.19;98935.84;5041630;28;20041;-70
2021/12/02 10:44:23;;;;;;;1.73;1.25;;;;;;;-8.95;86.24;98944.03;5079095;28;20076;-70
2021/12/02 10:46:55;;;;;;;3.70;2.53;;;;;;;-8.89;86.24;98943.22;5049888;28;20554;-70
2021/12/02 10:49:21;;;;;;;3.58;2.67;;;;;;;-8.86;86.12;98942.84;5048569;28;20040;-71
2021/12/02 10:51:50;;;;;;;5.32;2.80;;;;;;;-8.85;86.07;98933.03;5049256;28;20036;-70
2021/12/02 10:54:36;;;;;;;7.65;3.30;;;;;;;-8.87;86.19;98941.19;5050029;28;20507;-70
2021/12/02 10:57:17;;;;;;;8.00;2.97;;;;;;;-8.89;86.00;98937.91;5043483;28;20041;-71
2021/12/02 10:59:45;;;;;;;8.02;4.18;;;;;;;-8.93;85.51;98939.34;5043492;28;20044;-71
2021/12/02 11:02:38;;;;;;;8.38;4.20;;;;;;;-8.94;85.15;98936.88;5048700;28;20040;-69
2021/12/02 11:05:05;;;;;;;2.10;1.77;;;;;;;-8.95;85.03;98920.13;5047421;28;20049;-69
2021/12/02 11:07:39;;;;;;;5.82;3.15;;;;;;;-8.95;84.96;98935.25;5050082;28;20048;-69
2021/12/02 11:10:15;;;;;;;7.80;4.60;;;;;;;-8.91;85.10;98926.66;5046501;28;20187;-69
2021/12/02 11:12:43;;;;;;;6.18;3.80;;;;;;;-8.92;85.06;98929.53;5049247;28;20056;-69
2021/12/02 11:15:12;;;;;;;9.65;5.82;;;;;;;-8.93;85.07;98927.88;5049999;28;20041;-69
2021/12/02 11:17:39;;;;;;;;;;;;;;;-8.92;85.23;98937.50;5050381;28;20527;-69
2021/12/02 11:20:08;;;;;;;8.50;5.72;;;;;;;-8.92;85.36;98930.34;5052496;28;20369;-68
2021/12/02 11:22:34;;;;;;;;;;;;;;;-8.93;85.19;98926.06;5054017;28;20029;-69
2021/12/02 11:25:00;;;;;;;8.18;5.10;;;;;;;-8.93;85.70;98931.38;5052176;28;19920;-69
2021/12/02 11:27:34;;;;;;;9.25;3.83;;;;;;;-8.93;85.26;98927.88;5053479;28;20095;-69
2021/12/02 11:30:09;;;;;;;7.50;4.28;;;;;;;-8.97;85.27;98924.81;5053295;28;20124;-69
2021/12/02 11:32:38;;;;;;;3.63;2.90;;;;;;;-9.01;85.05;98920.09;5052482;28;20462;-68
2021/12/02 11:35:12;;;;;;;7.23;4.77;;;;;;;-9.03;85.16;98917.63;5068532;28;20499;-68
2021/12/02 11:37:41;;;;;;;2.20;1.92;;;;;;;-9.04;85.10;98921.28;5052112;28;20287;-69
2021/12/02 11:40:16;;;;;;;12.93;6.32;;;;;;;-9.03;85.08;98924.75;5051923;28;20664;-69
2021/12/02 11:42:42;;;;;;;8.85;4.55;;;;;;;-9.07;85.24;98929.66;5055495;28;20469;-69
2021/12/02 11:45:10;;;;;;;8.50;5.13;;;;;;;-9.08;85.43;98925.38;5052900;28;20410;-69
2021/12/02 11:47:36;;;;;;;11.15;5.45;;;;;;;-9.07;85.46;98929.66;5052574;28;20470;-68
2021/12/02 11:50:07;;;;;;;9.40;5.05;;;;;;;-9.08;85.61;98930.69;5051809;28;20041;-68
2021/12/02 11:52:37;;;;;;;13.02;4.88;;;;;;;-9.10;85.80;98935.38;5052191;28;20513;-69
2021/12/02 11:55:07;;;;;;;8.57;4.57;;;;;;;-9.10;85.90;98934.56;5051044;28;20057;-69